Catàleg de serveis del Meteocat

Dades de l'estació automàtica el Masroig

?
?
Resum diari 20:00 TU
Dades diàries de l'estació meteorològica
Temperatura mitjana 5.7 °C
Temperatura màxima 13.8 °C 14:02 TU
Temperatura mínima 0.9 °C 7:14 TU
Humitat relativa mitjana 86%
Precipitació acumulada 0.0 mm
Ratxa màxima del vent (2 m) 9.7 km/h - 134º 1:36 TU

El tram horari està expressat en Temps Universal (TU). Cal sumar una hora en horari d'hivern i dues en horari d'estiu per passar a l'hora oficial.

el Masroig

Metadades estació meteorol´gica
Municipi El Masroig
Comarca Priorat
Altitud 141 m
Data alta 20.06.2000
Estat actual Operativa
Dades de període
Període
TU
TM
°C
TX
°C
TN
°C
HRM
%
PPT
mm
VVM (2 m)
km/h
DVM (2 m)
graus
VVX (2 m)
km/h
00:00 - 00:30 2.9 3.3 2.4 96 0.0 2.5 100 6.5
00:30 - 01:00 2.6 2.8 2.4 97 0.0 2.9 119 6.5
01:00 - 01:30 2.5 3.0 2.2 97 0.0 5.8 129 9.4
01:30 - 02:00 3.0 3.3 2.7 96 0.0 4.7 140 9.7
02:00 - 02:30 2.4 3.0 2.0 96 0.0 2.5 96 4.3
02:30 - 03:00 2.0 2.2 1.8 97 0.0 2.2 114 4.7
03:00 - 03:30 2.0 2.3 1.7 97 0.0 2.5 106 4.7
03:30 - 04:00 1.5 2.1 1.1 97 0.0 1.8 111 3.2
04:00 - 04:30 1.3 1.8 0.9 98 0.0 2.9 113 5.0
04:30 - 05:00 1.3 1.5 1.2 98 0.0 2.5 123 4.7
05:00 - 05:30 1.4 1.6 1.3 98 0.0 2.5 114 4.3
05:30 - 06:00 1.2 1.6 1.0 98 0.0 2.5 117 4.7
06:00 - 06:30 1.0 1.1 0.9 98 0.0 2.9 124 4.3
06:30 - 07:00 1.1 1.3 0.9 98 0.0 2.2 116 4.0
07:00 - 07:30 1.2 1.5 0.9 98 0.0 2.5 115 4.0
07:30 - 08:00 1.8 2.8 1.3 98 0.0 1.4 119 4.3
08:00 - 08:30 2.6 3.0 2.2 98 0.0 1.1 314 3.2
08:30 - 09:00 3.7 4.4 2.8 96 0.0 2.2 273 4.3
09:00 - 09:30 4.6 5.5 3.9 93 0.0 1.4 283 3.2
09:30 - 10:00 5.9 6.2 5.6 89 0.0 3.6 274 6.8
10:00 - 10:30 6.6 7.1 6.1 86 0.0 3.6 271 6.5
10:30 - 11:00 7.9 8.6 7.2 82 0.0 3.2 271 7.6
11:00 - 11:30 8.9 9.8 8.4 76 0.0 4.0 259 8.6
11:30 - 12:00 10.0 11.0 9.5 71 0.0 4.0 275 7.9
12:00 - 12:30 11.7 12.8 10.6 63 0.0 2.5 229 7.2
12:30 - 13:00 12.8 13.3 12.3 59 0.0 2.2 227 7.2
13:00 - 13:30 12.8 13.6 12.3 59 0.0 3.6 230 6.8
13:30 - 14:00 13.3 13.7 13.1 57 0.0 3.2 293 9.0
14:00 - 14:30 13.5 13.8 13.3 56 0.0 4.3 284 9.0
14:30 - 15:00 13.3 13.7 12.9 56 0.0 4.0 283 7.6
15:00 - 15:30 12.5 12.9 12.2 60 0.0 4.0 290 6.5
15:30 - 16:00 11.6 12.1 11.1 66 0.0 1.8 281 4.7
16:00 - 16:30 9.7 11.0 8.6 77 0.0 1.8 125 4.7
16:30 - 17:00 8.0 8.5 7.3 84 0.0 3.2 121 5.4
17:00 - 17:30 6.8 7.2 6.4 89 0.0 3.2 129 5.8
17:30 - 18:00 6.1 6.4 6.0 90 0.0 4.0 121 6.5
18:00 - 18:30 5.7 6.0 5.4 90 0.0 4.0 125 6.5
18:30 - 19:00 5.1 5.5 4.7 92 0.0 3.6 125 6.1
19:00 - 19:30 4.6 4.8 4.3 93 0.0 3.6 115 5.8
19:30 - 20:00 4.2 4.3 4.1 94 0.0 2.5 123 4.7
20:00 - 20:30 3.8 4.0 3.6 94 0.0 3.6 110 5.0
20:30 - 21:00 (s/d) (s/d) (s/d) (s/d) (s/d) (s/d) (s/d) (s/d)

Les dades en taronja només han passat un control de qualitat automàtic. Resta pendent la seva validació definitiva.